• Join FlightAware (Why Join?)
  • Login
  • US Flag 
06:42AM EST


 

Airport Tracker/Info


-or-


 

Live Flight TrackerFlight Track Log ✈ AAY860 ✈ 17-Jan-2014 ✈ KPIE - KLEX

Flight Track Log - Related Links

Times and Time Zones

All times are in EST time to prevent confusion due to time zone crossing. See the AAY860 flight status page for this flight to view local times or setup timezone preferences in your user account.

Time Position Orientation Groundspeed Altitude Reporting Facility
EST Latitude Longitude Course Direction KTS MPH feet Rate Location/Type
07:22AM 27.9333 -82.7000 30° Northeast 169 194 800  Level Tampa TRACON
07:23AM 27.9833 -82.6667 30° Northeast 183 211 3,600 1,920 Climbing Tampa TRACON
07:24AM 28.0500 -82.6500 12° North 263 303 5,300 2,280 Climbing Tampa TRACON
07:25AM 28.1167 -82.6667 348° North 273 314 8,200 2,100 Climbing Tampa TRACON
07:27AM 28.2917 -82.7394 340° North 304 350 12,000 1,920 Climbing Jacksonville Center
07:28AM 28.3897 -82.7817 339° North 345 397 14,400 2,220 Climbing Jacksonville Center
07:29AM 28.4983 -82.8169 344° North 378 435 16,500 1,980 Climbing Jacksonville Center
07:30AM 28.6047 -82.8619 340° North 396 456 18,400 1,800 Climbing Jacksonville Center
07:31AM 28.7156 -82.9044 341° North 410 472 20,100 1,680 Climbing Jacksonville Center
07:32AM 28.8281 -82.9494 341° North 415 478 21,800 1,500 Climbing Jacksonville Center
07:33AM 28.9472 -82.9922 343° North 428 493 23,100 1,440 Climbing Jacksonville Center
07:34AM 29.0703 -83.0422 340° North 446 513 24,700 1,860 Climbing Jacksonville Center
07:35AM 29.1911 -83.0828 344° North 451 519 26,900 1,740 Climbing Jacksonville Center
07:36AM 29.3081 -83.1236 343° North 444 511 28,200 1,200 Climbing Jacksonville Center
07:37AM 29.4269 -83.1717 341° North 439 505 29,400 840 Climbing Jacksonville Center
07:38AM 29.5439 -83.2078 345° North 460 529 29,900 420 Climbing Jacksonville Center
07:39AM 29.6625 -83.2631 338° Northwest 447 514 30,300 960 Climbing Jacksonville Center
07:40AM 29.7836 -83.2994 345° North 441 507 31,900 840 Climbing Jacksonville Center
07:41AM 29.8961 -83.3453 341° North 441 507 32,000  Climbing Jacksonville Center
07:42AM 30.0150 -83.3892 342° North 441 507 32,000 -60 Level Jacksonville Center
07:43AM 30.1275 -83.4306 342° North 441 507 31,900  Descending Jacksonville Center
07:44AM 30.2444 -83.4744 342° North 441 507 32,000  Climbing Jacksonville Center
07:45AM 30.3631 -83.5161 343° North 441 507 32,000  Level Jacksonville Center
07:46AM 30.4778 -83.5628 341° North 441 507 32,000  Level Jacksonville Center
07:47AM 30.5839 -83.5972 344° North 436 502 32,000  Level Jacksonville Center
07:48AM 30.6986 -83.6464 340° North 436 502 32,000  Level Jacksonville Center
07:49AM 30.8194 -83.6883 343° North 441 507 32,000  Level Jacksonville Center
07:50AM 30.9361 -83.7356 341° North 446 513 32,000  Level Jacksonville Center
07:53AM 31.2183 -83.8447 342° North 456 525 32,000  Level Atlanta Center
07:54AM 31.3394 -83.8881 343° North 451 519 32,000  Level Atlanta Center
07:55AM 31.4544 -83.9367 340° North 445 512 32,000  Level Atlanta Center
07:56AM 31.5672 -83.9681 347° North 445 512 32,000  Level Atlanta Center
07:57AM 31.6964 -83.9975 349° North 456 525 32,000  Level Atlanta Center
07:58AM 31.8217 -84.0267 349° North 456 525 32,000  Level Atlanta Center
07:59AM 31.9492 -84.0511 351° North 461 531 32,000  Level Atlanta Center
08:00AM 32.0722 -84.0856 347° North 461 531 32,000  Level Atlanta Center
08:01AM 32.2017 -84.1100 351° North 455 524 32,000  Level Atlanta Center
08:02AM 32.3247 -84.1422 348° North 455 524 32,000  Level Atlanta Center
08:03AM 32.4519 -84.1644 352° North 450 518 32,000  Level Atlanta Center
08:04AM 32.5772 -84.1942 349° North 450 518 32,000  Level Atlanta Center
08:05AM 32.7086 -84.2017 357° North 455 524 32,000  Level Atlanta Center
08:06AM 32.8422 -84.2119 356° North 468 539 32,000  Level Atlanta Center
08:07AM 32.9717 -84.2194 357° North 468 539 32,000  Level Atlanta Center
08:08AM 33.1053 -84.2222 359° North 468 539 32,000  Level Atlanta Center
08:09AM 33.2514 -84.2325 357° North 475 547 32,000  Level Atlanta Center
08:10AM 33.3869 -84.2353 359° North 480 552 32,000  Level Atlanta Center
08:11AM 33.5164 -84.2481 355° North 475 547 32,000  Level Atlanta Center
08:12AM 33.6356 -84.2458 North 475 547 32,000  Level Atlanta Center
08:13AM 33.7711 -84.2586 356° North 475 547 32,000  Level Atlanta Center
08:14AM 33.9067 -84.2617 359° North 480 552 32,000  Level Atlanta Center
08:15AM 34.0383 -84.2719 356° North 480 552 32,000  Level Atlanta Center
08:16AM 34.1928 -84.2750 359° North 493 567 32,000  Level Atlanta Center
08:17AM 34.3261 -84.2803 358° North 495 570 32,000  Level Atlanta Center
08:18AM 34.4619 -84.2883 357° North 483 556 32,000  Level Atlanta Center
08:19AM 34.5956 -84.2911 359° North 478 550 32,000  Level Atlanta Center
08:20AM 34.7247 -84.3042 355° North 466 536 32,000  Level Atlanta Center
08:21AM 34.8583 -84.3072 359° North 471 542 32,000  Level Atlanta Center
08:22AM 34.9856 -84.3203 355° North 471 542 32,000  Level Atlanta Center
08:23AM 35.1233 -84.3231 359° North 471 542 32,000  Level Atlanta Center
08:24AM 35.2569 -84.3339 356° North 477 549 32,000  Level Atlanta Center
08:25AM 35.3925 -84.3369 359° North 477 549 32,000  Level Atlanta Center
08:26AM 35.5217 -84.3475 356° North 472 543 32,000  Level Atlanta Center
08:27AM 35.6533 -84.3531 358° North 472 543 32,000 -600 Level Atlanta Center
08:29AM 35.8800 -84.3667 357° North 464 534 30,300 -1,140 Descending Indianapolis Center
08:30AM 36.0431 -84.3672 360° North 489 563 28,800 -1,320 Descending Indianapolis Center
08:31AM 36.1736 -84.3817 355° North 476 548 27,700 -1,080 Descending Indianapolis Center
08:32AM 36.3061 -84.3794 North 477 549 26,600 -1,140 Descending Indianapolis Center
08:33AM 36.4386 -84.3936 355° North 480 552 25,400 -840 Descending Indianapolis Center
08:34AM 36.5786 -84.3961 359° North 466 536 24,900 -720 Descending Indianapolis Center
08:35AM 36.7031 -84.4075 356° North 450 518 24,000 -780 Descending Indianapolis Center
08:36AM 36.8275 -84.4125 358° North 448 516 23,400 -1,200 Descending Indianapolis Center
08:37AM 36.9447 -84.4272 354° North 427 491 21,600 -2,100 Descending Indianapolis Center
08:38AM 37.0672 -84.4272 360° North 434 499 19,200 -2,400 Descending Indianapolis Center
08:39AM 37.1847 -84.4353 357° North 422 486 16,700 -2,400 Descending Indianapolis Center
08:40AM 37.2964 -84.4369 359° North 405 466 14,300 -2,400 Descending Indianapolis Center
08:41AM 37.4064 -84.4400 359° North 396 456 11,900 -1,920 Descending Indianapolis Center
08:42AM 37.5242 -84.4481 357° North 370 426 10,400 -1,380 Descending Indianapolis Center
08:43AM 37.6089 -84.4533 357° North 320 368 9,100 -1,080 Descending Indianapolis Center
08:44AM 37.6908 -84.4617 355° North 299 344 8,300 -840 Descending Indianapolis Center
08:45AM 37.7744 -84.4653 358° North 298 343 7,400 -1,260 Descending Indianapolis Center
08:46AM 37.8528 -84.4478 10° North 292 336 5,800 -1,200 Descending Indianapolis Center
08:47AM 37.9250 -84.4153 20° North 284 327 5,000 -420 Descending Indianapolis Center
08:48AM 37.9828 -84.3931 17° North 256 295 5,000 -420 Level Indianapolis Center
08:49AM 38.0494 -84.3789 North 229 264 4,200 -840 Descending Indianapolis Center
08:50AM 38.1078 -84.3731 North 219 252 3,300 -540 Descending Indianapolis Center
08:51AM 38.1500 -84.4081 327° Northwest 190 219 3,200 -60 Descending Indianapolis Center
08:52AM 38.1653 -84.4519 294° West 163 188 3,200  Level Indianapolis Center
08:53AM 38.1375 -84.4933 230° Southwest 162 186 3,200 -240 Level Indianapolis Center
08:54AM 38.1075 -84.5283 223° Southwest 154 177 2,800 -540 Descending Indianapolis Center
08:55AM 38.0806 -84.5578 221° Southwest 144 166 2,100 -540 Descending Indianapolis Center
08:56AM 38.0531 -84.5886 221° Southwest 139 160 1,800 -300 Descending Indianapolis Center